Time;durP1;ratioP1;P1;durP2;ratioP2;P2;SDS_P1;SDS_P2;PMS_P1;PMS_P2;Temp;Humidity;BMP_temperature;BMP_pressure;BME280_temperature;BME280_humidity;BME280_pressure;Samples;Min_cycle;Max_cycle;Signal;HPM_P1;HPM_P2
2021/12/03 00:01:26;;;;;;;24.80;16.50;;;-0.20;88.40;;;;;;5154204;27;20042;-76
2021/12/03 00:03:52;;;;;;;30.98;23.88;;;-0.20;87.00;;;;;;5136931;27;20483;-76
2021/12/03 00:06:18;;;;;;;17.08;10.30;;;-0.20;87.60;;;;;;5153747;27;20041;-76
2021/12/03 00:08:44;;;;;;;77.30;59.72;;;-0.30;88.80;;;;;;5153564;27;20027;-76
2021/12/03 00:11:12;;;;;;;13.70;10.85;;;-0.30;88.10;;;;;;5154020;27;20023;-77
2021/12/03 00:13:38;;;;;;;30.52;21.52;;;-0.30;88.20;;;;;;5153849;27;20426;-76
2021/12/03 00:16:04;;;;;;;24.35;18.45;;;-0.30;88.60;;;;;;5155195;27;20054;-77
2021/12/03 00:18:31;;;;;;;24.92;19.75;;;-0.40;87.40;;;;;;5153778;27;20018;-76
2021/12/03 00:20:58;;;;;;;19.52;11.30;;;-0.30;88.30;;;;;;5153870;27;20425;-77
2021/12/03 00:23:25;;;;;;;13.93;6.18;;;-0.30;89.30;;;;;;5154975;27;20019;-76
2021/12/03 00:25:52;;;;;;;65.45;41.25;;;-0.40;89.40;;;;;;5136721;27;20053;-77
2021/12/03 00:28:17;;;;;;;37.15;30.65;;;-0.30;90.20;;;;;;5154961;27;20014;-76
2021/12/03 00:30:43;;;;;;;22.33;20.00;;;-0.40;89.30;;;;;;5154797;27;20026;-76
2021/12/03 00:33:09;;;;;;;14.73;12.82;;;-0.40;89.90;;;;;;5154945;27;20494;-76
2021/12/03 00:35:35;;;;;;;12.82;11.48;;;-0.40;90.80;;;;;;5153349;27;20498;-77
2021/12/03 00:38:01;;;;;;;14.13;8.55;;;-0.40;89.90;;;;;;5154788;27;20027;-77
2021/12/03 00:40:32;;;;;;;12.98;8.50;;;-0.40;91.00;;;;;;5153398;27;20060;-77
2021/12/03 00:43:00;;;;;;;11.23;5.63;;;-0.40;91.40;;;;;;5153353;27;20029;-77
2021/12/03 00:45:26;;;;;;;8.35;6.05;;;-0.40;91.60;;;;;;5154593;27;20026;-76
2021/12/03 00:47:52;;;;;;;6.80;4.32;;;-0.50;92.20;;;;;;5153407;27;20026;-76
2021/12/03 00:50:22;;;;;;;8.00;4.78;;;-0.40;92.20;;;;;;5153334;27;20019;-76
2021/12/03 00:52:49;;;;;;;5.80;4.45;;;-0.40;92.40;;;;;;5153597;27;20095;-77
2021/12/03 00:55:15;;;;;;;8.30;3.25;;;-0.50;93.00;;;;;;5153305;27;20067;-76
2021/12/03 00:57:41;;;;;;;7.03;4.63;;;-0.40;93.60;;;;;;5153172;27;20035;-77
2021/12/03 01:00:23;;;;;;;6.78;3.90;;;-0.50;94.40;;;;;;5151852;27;20033;-77
2021/12/03 01:02:50;;;;;;;6.57;3.38;;;-0.50;94.70;;;;;;5152583;27;20027;-77
2021/12/03 01:05:16;;;;;;;6.70;3.78;;;-0.50;94.50;;;;;;5152227;27;20018;-77
2021/12/03 01:07:42;;;;;;;4.70;3.45;;;-0.50;94.90;;;;;;5152558;27;20048;-76
2021/12/03 01:10:08;;;;;;;6.60;3.67;;;-0.50;94.70;;;;;;5151690;27;20027;-76
2021/12/03 01:12:35;;;;;;;5.28;3.22;;;-0.50;95.00;;;;;;5153071;27;20052;-77
2021/12/03 01:15:01;;;;;;;5.53;3.33;;;-0.60;95.20;;;;;;5151730;27;20534;-76
2021/12/03 01:17:26;;;;;;;10.82;4.35;;;-0.60;95.90;;;;;;5152984;27;20018;-76
2021/12/03 01:19:52;;;;;;;5.03;3.58;;;-0.60;95.80;;;;;;5152933;27;20543;-76
2021/12/03 01:22:18;;;;;;;18.02;10.60;;;-0.60;95.80;;;;;;5151669;27;20519;-77
2021/12/03 01:24:44;;;;;;;8.00;4.10;;;-0.60;94.80;;;;;;5152538;27;20110;-76
2021/12/03 01:27:09;;;;;;;9.93;3.83;;;-0.60;95.00;;;;;;5154192;27;20042;-77
2021/12/03 01:29:35;;;;;;;6.72;3.60;;;-0.60;95.80;;;;;;5152907;27;20027;-76
2021/12/03 01:32:00;;;;;;;4.55;2.92;;;-0.60;95.80;;;;;;5152821;27;20054;-76
2021/12/03 01:34:26;;;;;;;6.45;4.20;;;-0.60;95.40;;;;;;5152870;27;20034;-76
2021/12/03 01:36:51;;;;;;;4.22;3.47;;;-0.60;96.10;;;;;;5152900;27;20391;-76
2021/12/03 01:39:17;;;;;;;6.65;2.80;;;-0.60;96.90;;;;;;5154068;27;20357;-76
2021/12/03 01:41:44;;;;;;;6.43;3.88;;;-0.60;97.90;;;;;;5154113;27;20415;-76
2021/12/03 01:44:09;;;;;;;7.53;3.53;;;-0.70;98.80;;;;;;5153814;27;20037;-76
2021/12/03 01:46:35;;;;;;;7.28;3.25;;;-0.70;98.80;;;;;;5152704;27;20027;-76
2021/12/03 01:49:02;;;;;;;10.93;4.13;;;-0.70;98.70;;;;;;5154040;27;20417;-76
2021/12/03 01:51:27;;;;;;;9.25;4.65;;;-0.70;98.20;;;;;;5152917;27;20442;-76
2021/12/03 01:53:54;;;;;;;7.57;3.90;;;-0.70;98.50;;;;;;5152703;27;20043;-76
2021/12/03 01:56:21;;;;;;;5.63;3.85;;;-0.70;99.70;;;;;;5152752;27;20033;-77
2021/12/03 01:58:48;;;;;;;6.97;5.03;;;-0.70;99.90;;;;;;5153924;27;20019;-76
2021/12/03 02:01:16;;;;;;;9.02;4.32;;;-0.80;99.90;;;;;;5152641;27;20022;-77
2021/12/03 02:03:46;;;;;;;7.95;3.60;;;-0.80;99.90;;;;;;5152565;27;20059;-77
2021/12/03 02:06:13;;;;;;;6.75;4.05;;;-0.90;99.70;;;;;;5152681;27;20057;-76
2021/12/03 02:08:40;;;;;;;4.18;3.08;;;-0.90;99.50;;;;;;5140836;27;20118;-77
2021/12/03 02:11:08;;;;;;;4.90;3.60;;;-0.90;99.60;;;;;;5050329;28;20048;-77
2021/12/03 02:13:34;;;;;;;4.88;2.83;;;-0.80;99.30;;;;;;5051067;28;20059;-76
2021/12/03 02:16:00;;;;;;;7.55;3.55;;;-0.90;99.60;;;;;;5051160;28;20161;-76
2021/12/03 02:18:26;;;;;;;5.38;3.05;;;-0.80;99.40;;;;;;5052159;28;20108;-76
2021/12/03 02:20:53;;;;;;;5.00;2.97;;;-0.90;99.30;;;;;;5050946;28;20034;-76
2021/12/03 02:23:21;;;;;;;4.53;3.20;;;-0.90;99.00;;;;;;5050872;28;20044;-76
2021/12/03 02:25:47;;;;;;;4.15;3.17;;;-1.00;99.10;;;;;;5051910;28;20025;-77
2021/12/03 02:28:14;;;;;;;6.05;3.22;;;-1.00;99.20;;;;;;5052107;28;20049;-76
2021/12/03 02:30:42;;;;;;;6.85;3.40;;;-1.00;99.80;;;;;;5050700;28;20056;-76
2021/12/03 02:33:08;;;;;;;3.85;2.97;;;-1.10;99.90;;;;;;5050750;28;20385;-76
2021/12/03 02:35:34;;;;;;;6.43;3.05;;;-1.10;99.90;;;;;;5050658;28;20121;-76
2021/12/03 02:38:00;;;;;;;4.53;3.28;;;-1.10;99.90;;;;;;5050681;28;20017;-76
2021/12/03 02:40:26;;;;;;;4.57;2.80;;;-1.10;99.90;;;;;;5051831;28;20051;-76
2021/12/03 02:42:52;;;;;;;7.82;3.85;;;-1.10;99.90;;;;;;5051859;28;20104;-76
2021/12/03 02:45:18;;;;;;;3.22;2.92;;;-1.10;99.90;;;;;;5050469;28;20127;-76
2021/12/03 02:47:45;;;;;;;8.40;3.35;;;-1.20;99.90;;;;;;5051824;28;20053;-76
2021/12/03 02:50:12;;;;;;;5.80;3.50;;;-1.20;99.90;;;;;;5051807;28;20465;-76
2021/12/03 02:52:38;;;;;;;5.65;3.60;;;-1.20;99.90;;;;;;5051669;28;20494;-76
2021/12/03 02:55:05;;;;;;;4.78;3.65;;;-1.20;99.90;;;;;;5050393;28;20071;-76
2021/12/03 02:57:31;;;;;;;3.72;3.22;;;-1.30;99.90;;;;;;5051636;28;20029;-76
2021/12/03 02:59:56;;;;;;;4.38;3.20;;;-1.30;99.90;;;;;;5051523;28;20470;-77
2021/12/03 03:02:22;;;;;;;6.78;3.65;;;-1.30;99.90;;;;;;5065007;27;20046;-76
2021/12/03 03:04:47;;;;;;;4.22;3.05;;;-1.30;99.90;;;;;;5050245;28;20033;-77
2021/12/03 03:07:13;;;;;;;5.50;3.63;;;-1.30;99.90;;;;;;5050180;28;20381;-76
2021/12/03 03:09:43;;;;;;;7.65;3.70;;;-1.30;99.90;;;;;;5049839;28;20033;-76
2021/12/03 03:12:09;;;;;;;6.10;4.47;;;-1.40;99.90;;;;;;5051341;28;20018;-77
2021/12/03 03:14:35;;;;;;;11.10;4.03;;;-1.40;99.90;;;;;;5051130;28;20481;-76
2021/12/03 03:17:01;;;;;;;7.68;3.30;;;-1.50;99.90;;;;;;5049914;28;20025;-76
2021/12/03 03:19:26;;;;;;;5.05;3.42;;;-1.50;99.90;;;;;;5050893;28;20025;-76
2021/12/03 03:21:52;;;;;;;6.03;3.92;;;-1.50;99.90;;;;;;5050583;28;20390;-76
2021/12/03 03:24:18;;;;;;;8.38;3.60;;;-1.50;99.90;;;;;;5050844;28;20025;-76
2021/12/03 03:26:46;;;;;;;8.40;4.35;;;-1.40;99.90;;;;;;5124302;27;20062;-77
2021/12/03 03:29:14;;;;;;;5.47;3.28;;;-1.50;99.90;;;;;;5154538;27;20446;-76
2021/12/03 03:31:40;;;;;;;5.55;3.58;;;-1.50;99.90;;;;;;5154554;27;20018;-76
2021/12/03 03:34:07;;;;;;;6.47;4.20;;;-1.50;99.90;;;;;;5154456;27;20509;-76
2021/12/03 03:36:35;;;;;;;5.63;3.30;;;-1.40;99.90;;;;;;5155863;27;20026;-76
2021/12/03 03:39:02;;;;;;;7.78;3.53;;;-1.40;99.90;;;;;;5155774;27;20502;-76
2021/12/03 03:41:28;;;;;;;9.48;4.38;;;-1.40;99.90;;;;;;5155779;27;20067;-79
2021/12/03 03:43:53;;;;;;;10.68;4.75;;;-1.40;99.90;;;;;;5154454;27;20050;-79
2021/12/03 03:46:19;;;;;;;6.93;3.67;;;-1.40;99.90;;;;;;5154309;27;20038;-79
2021/12/03 03:48:45;;;;;;;6.85;3.20;;;-1.40;99.90;;;;;;5154297;27;20099;-79
2021/12/03 03:51:11;;;;;;;5.55;3.38;;;-1.40;99.90;;;;;;5154467;27;20056;-80
2021/12/03 03:53:39;;;;;;;3.92;3.33;;;-1.40;99.90;;;;;;5153956;27;20023;-77
2021/12/03 03:56:06;;;;;;;11.10;4.35;;;-1.40;99.90;;;;;;5154277;27;20023;-77
2021/12/03 03:58:31;;;;;;;5.00;4.00;;;-1.40;99.90;;;;;;5154294;27;20556;-76
2021/12/03 04:00:57;;;;;;;6.82;3.70;;;-1.40;99.90;;;;;;5154042;27;20050;-76
2021/12/03 04:03:23;;;;;;;7.75;3.53;;;-1.40;99.90;;;;;;5153796;27;20122;-76
2021/12/03 04:05:48;;;;;;;4.47;3.80;;;-1.40;99.90;;;;;;5153862;27;20114;-76
2021/12/03 04:08:14;;;;;;;10.30;5.18;;;-1.40;99.90;;;;;;5153678;27;20027;-77
2021/12/03 04:10:40;;;;;;;4.78;3.58;;;-1.40;99.90;;;;;;5154918;27;20023;-76
2021/12/03 04:13:06;;;;;;;4.75;3.50;;;-1.40;99.90;;;;;;5153744;27;20019;-76
2021/12/03 04:15:31;;;;;;;5.40;2.92;;;-1.40;99.90;;;;;;5153691;27;20064;-77
2021/12/03 04:17:57;;;;;;;4.50;3.42;;;-1.40;99.90;;;;;;5154656;27;20019;-76
2021/12/03 04:20:22;;;;;;;8.65;3.30;;;-1.50;99.90;;;;;;5153611;27;20030;-77
2021/12/03 04:22:49;;;;;;;6.93;3.28;;;-1.50;99.90;;;;;;5153635;27;20037;-77
2021/12/03 04:25:19;;;;;;;8.82;3.22;;;-1.40;99.90;;;;;;5154763;27;20107;-76
2021/12/03 04:27:46;;;;;;;4.63;3.47;;;-1.50;99.90;;;;;;5155290;27;20050;-76
2021/12/03 04:30:23;;;;;;;7.78;3.78;;;-1.50;99.90;;;;;;5153439;27;20109;-76
2021/12/03 04:32:49;;;;;;;4.57;3.40;;;-1.50;99.90;;;;;;5152717;27;20017;-77
2021/12/03 04:35:15;;;;;;;9.45;3.65;;;-1.40;99.90;;;;;;5153117;27;20030;-77
2021/12/03 04:37:41;;;;;;;5.38;3.67;;;-1.40;99.90;;;;;;5153438;27;20029;-76
2021/12/03 04:40:10;;;;;;;6.43;3.28;;;-1.40;99.90;;;;;;5154638;27;20486;-76
2021/12/03 04:42:36;;;;;;;4.30;3.63;;;-1.40;99.90;;;;;;5154557;27;20019;-77
2021/12/03 04:45:04;;;;;;;5.78;3.80;;;-1.40;99.90;;;;;;5153349;27;20053;-77
2021/12/03 04:47:30;;;;;;;4.20;3.28;;;-1.40;99.90;;;;;;5153169;27;20023;-76
2021/12/03 04:49:56;;;;;;;3.85;3.50;;;-1.40;99.90;;;;;;5153170;27;20365;-77
2021/12/03 04:52:21;;;;;;;6.10;4.13;;;-1.40;99.90;;;;;;5153082;27;20038;-76
2021/12/03 04:54:47;;;;;;;6.43;4.13;;;-1.40;99.90;;;;;;5153202;27;20487;-77
2021/12/03 04:57:13;;;;;;;5.35;3.72;;;-1.40;99.90;;;;;;5153263;27;20083;-76
2021/12/03 04:59:38;;;;;;;6.25;3.70;;;-1.40;99.90;;;;;;5154110;27;20054;-76
2021/12/03 05:02:04;;;;;;;7.30;3.20;;;-1.30;99.90;;;;;;5152971;27;20025;-77
2021/12/03 05:04:36;;;;;;;7.60;3.60;;;-1.30;99.90;;;;;;5154132;27;20035;-76
2021/12/03 05:09:31;;;;;;;180.18;72.05;;;-1.30;99.90;;;;;;5154428;27;20031;-76
2021/12/03 05:11:58;;;;;;;194.63;73.15;;;-1.30;99.90;;;;;;5153134;27;20129;-77
2021/12/03 05:14:24;;;;;;;709.17;310.23;;;-1.40;99.90;;;;;;5152806;27;20022;-76
2021/12/03 05:16:49;;;;;;;341.83;133.50;;;-1.30;99.90;;;;;;5153075;27;20503;-76
2021/12/03 05:19:16;;;;;;;117.70;49.63;;;-1.40;99.90;;;;;;5152870;27;20027;-77
2021/12/03 05:21:43;;;;;;;37.95;16.38;;;-1.40;99.90;;;;;;5154208;27;20023;-76
2021/12/03 05:24:10;;;;;;;146.90;56.58;;;-1.40;99.90;;;;;;5152828;27;20061;-76
2021/12/03 05:26:38;;;;;;;100.57;42.13;;;-1.30;99.90;;;;;;5152756;27;20038;-76
2021/12/03 05:29:05;;;;;;;10.02;5.72;;;-1.40;99.90;;;;;;5152827;27;20030;-76
2021/12/03 05:31:31;;;;;;;7.65;4.03;;;-1.30;99.90;;;;;;5152710;27;20468;-77
2021/12/03 05:33:57;;;;;;;9.93;4.00;;;-1.40;99.90;;;;;;5152890;27;20021;-76
2021/12/03 05:36:22;;;;;;;6.75;4.30;;;-1.30;99.90;;;;;;5152776;27;20015;-77
2021/12/03 05:38:48;;;;;;;23.08;7.90;;;-1.40;99.90;;;;;;5152794;27;20421;-76
2021/12/03 05:41:14;;;;;;;7.93;4.88;;;-1.40;99.90;;;;;;5154235;27;20027;-76
2021/12/03 05:43:39;;;;;;;43.97;13.57;;;-1.40;99.90;;;;;;5152731;27;20035;-76
2021/12/03 05:46:05;;;;;;;13.98;5.25;;;-1.40;99.90;;;;;;5155804;27;20491;-76
2021/12/03 05:48:30;;;;;;;7.13;4.32;;;-1.40;99.90;;;;;;5154706;27;20023;-76
2021/12/03 05:50:56;;;;;;;28.80;8.65;;;-1.30;99.90;;;;;;5154983;27;20376;-78
2021/12/03 05:53:22;;;;;;;8.85;4.97;;;-1.30;99.90;;;;;;5156614;27;20514;-77
2021/12/03 05:55:48;;;;;;;14.15;4.97;;;-1.30;99.90;;;;;;5156836;27;20023;-77
2021/12/03 05:58:15;;;;;;;6.00;3.60;;;-1.30;99.90;;;;;;5154622;27;20043;-76
2021/12/03 06:00:42;;;;;;;10.15;5.28;;;-1.30;99.90;;;;;;5154361;27;20023;-77
2021/12/03 06:03:09;;;;;;;11.80;4.70;;;-1.40;99.90;;;;;;5156150;27;20019;-77
2021/12/03 06:05:36;;;;;;;17.98;6.55;;;-1.40;99.90;;;;;;5156026;27;20030;-76
2021/12/03 06:08:02;;;;;;;7.95;4.60;;;-1.40;99.90;;;;;;5156441;27;20015;-76
2021/12/03 06:10:28;;;;;;;8.77;4.68;;;-1.40;99.90;;;;;;5156110;27;20110;-76
2021/12/03 06:12:54;;;;;;;24.63;7.65;;;-1.40;99.90;;;;;;5157492;27;20093;-77
2021/12/03 06:15:20;;;;;;;18.73;5.50;;;-1.40;99.90;;;;;;5067001;27;20438;-77
2021/12/03 06:17:45;;;;;;;7.22;5.22;;;-1.40;99.90;;;;;;5051321;27;20151;-77
2021/12/03 06:20:12;;;;;;;10.75;5.20;;;-1.40;99.90;;;;;;5049394;27;20478;-78
2021/12/03 06:22:39;;;;;;;7.97;4.70;;;-1.40;99.90;;;;;;5115193;27;20060;-77
2021/12/03 06:25:07;;;;;;;7.95;4.82;;;-1.40;99.90;;;;;;5115330;27;20029;-77
2021/12/03 06:27:33;;;;;;;6.00;4.65;;;-1.40;99.90;;;;;;5108173;27;20038;-77
2021/12/03 06:29:59;;;;;;;8.18;4.78;;;-1.40;99.90;;;;;;5091101;27;20026;-77
2021/12/03 06:32:25;;;;;;;5.72;4.20;;;-1.40;99.90;;;;;;5088886;27;20390;-78
2021/12/03 06:34:52;;;;;;;7.55;4.20;;;-1.40;99.90;;;;;;5156665;27;20014;-78
2021/12/03 06:37:18;;;;;;;4.97;3.63;;;-1.40;99.90;;;;;;5155003;27;20015;-76
2021/12/03 06:39:43;;;;;;;29.20;12.82;;;-1.40;99.90;;;;;;5156478;27;20039;-76
2021/12/03 06:42:09;;;;;;;12.07;5.93;;;-1.40;99.90;;;;;;5142981;27;20022;-77
2021/12/03 06:44:35;;;;;;;16.90;5.75;;;-1.40;99.90;;;;;;5083755;27;20421;-77
2021/12/03 06:47:03;;;;;;;21.95;10.93;;;-1.40;99.90;;;;;;5045815;27;20033;-77
2021/12/03 06:49:29;;;;;;;17.35;7.22;;;-1.30;99.90;;;;;;5067413;27;20025;-77
2021/12/03 06:52:02;;;;;;;7.88;3.95;;;-1.30;99.90;;;;;;5047750;28;20017;-77
2021/12/03 06:54:31;;;;;;;;;;;-1.30;99.90;;;;;;5050763;27;20045;-77
2021/12/03 06:56:58;;;;;;;9.55;4.75;;;-1.30;99.90;;;;;;5102660;27;20368;-76
2021/12/03 06:59:24;;;;;;;7.13;4.95;;;-1.30;99.90;;;;;;5104268;27;20021;-76
2021/12/03 07:01:51;;;;;;;6.22;4.30;;;-1.40;99.90;;;;;;5122878;27;20030;-77
2021/12/03 07:04:18;;;;;;;7.00;4.95;;;-1.30;99.90;;;;;;5050175;27;20120;-77
2021/12/03 07:06:44;;;;;;;7.93;4.88;;;-1.40;99.90;;;;;;5051179;27;20037;-77
2021/12/03 07:09:10;;;;;;;9.68;5.45;;;-1.40;99.90;;;;;;5052274;27;20028;-76
2021/12/03 07:11:35;;;;;;;8.60;5.55;;;-1.30;99.90;;;;;;5070651;27;20036;-76
2021/12/03 07:14:02;;;;;;;8.32;5.78;;;-1.30;99.90;;;;;;5052273;27;20028;-77
2021/12/03 07:16:28;;;;;;;11.13;5.80;;;-1.30;99.90;;;;;;5087362;27;20528;-77
2021/12/03 07:18:54;;;;;;;9.43;5.78;;;-1.30;99.90;;;;;;5044205;27;20128;-77
2021/12/03 07:21:20;;;;;;;14.63;5.50;;;-1.30;99.90;;;;;;5038414;28;20025;-77
2021/12/03 07:23:47;;;;;;;10.10;6.05;;;-1.30;99.90;;;;;;5041196;28;20042;-77
2021/12/03 07:26:13;;;;;;;8.18;6.07;;;-1.30;99.90;;;;;;5040766;28;20035;-77
2021/12/03 07:28:38;;;;;;;9.90;5.50;;;-1.40;99.90;;;;;;5038247;28;20029;-77
2021/12/03 07:31:04;;;;;;;10.95;6.18;;;-1.50;99.90;;;;;;5040257;28;20061;-77
2021/12/03 07:33:31;;;;;;;11.20;6.88;;;-1.40;99.90;;;;;;5039055;28;20078;-77
2021/12/03 07:35:57;;;;;;;9.63;5.13;;;-1.50;99.90;;;;;;5037871;28;20017;-77
2021/12/03 07:38:23;;;;;;;5.70;4.72;;;-1.40;99.90;;;;;;5039649;27;20028;-77
2021/12/03 07:40:49;;;;;;;6.55;3.88;;;-1.50;99.90;;;;;;5039270;28;20025;-78
2021/12/03 07:43:17;;;;;;;6.80;3.92;;;-1.50;99.90;;;;;;5038091;28;20021;-77
2021/12/03 07:45:47;;;;;;;11.30;4.22;;;-1.50;99.90;;;;;;5039739;28;20077;-77
2021/12/03 07:48:12;;;;;;;7.72;4.53;;;-1.50;99.90;;;;;;5040873;28;20474;-77
2021/12/03 07:50:40;;;;;;;7.43;3.20;;;-1.40;99.90;;;;;;5039150;28;20021;-77
2021/12/03 07:53:08;;;;;;;10.23;3.70;;;-1.40;99.90;;;;;;5039168;28;20013;-78
2021/12/03 07:55:34;;;;;;;7.78;3.42;;;-1.30;99.90;;;;;;5039343;28;20044;-77
2021/12/03 07:58:02;;;;;;;7.40;3.47;;;-1.30;99.90;;;;;;5038772;28;20041;-77
2021/12/03 08:00:27;;;;;;;9.20;3.40;;;-1.40;99.90;;;;;;5038814;28;20032;-77
2021/12/03 08:02:53;;;;;;;8.38;4.82;;;-1.40;99.90;;;;;;5040723;28;20017;-78
2021/12/03 08:05:19;;;;;;;4.78;3.78;;;-1.40;99.90;;;;;;5038764;28;20498;-76
2021/12/03 08:07:47;;;;;;;8.90;5.43;;;-1.50;99.90;;;;;;5050135;28;20100;-77
2021/12/03 08:10:14;;;;;;;8.23;5.00;;;-1.40;99.90;;;;;;5048888;28;20021;-77
2021/12/03 08:12:41;;;;;;;7.75;5.10;;;-1.40;99.90;;;;;;5051998;27;20097;-77
2021/12/03 08:15:08;;;;;;;12.50;7.55;;;-1.30;99.90;;;;;;5074033;27;20064;-77
2021/12/03 08:17:34;;;;;;;18.83;8.77;;;-1.30;99.90;;;;;;5105061;27;20561;-77
2021/12/03 08:19:59;;;;;;;14.35;7.45;;;-1.30;99.90;;;;;;5095302;27;20111;-77
2021/12/03 08:22:25;;;;;;;21.08;11.43;;;-1.30;99.90;;;;;;5073828;27;20013;-77
2021/12/03 08:24:50;;;;;;;10.23;6.20;;;-1.30;99.90;;;;;;5064250;27;20028;-77
2021/12/03 08:27:16;;;;;;;15.98;7.90;;;-1.30;99.90;;;;;;5048671;28;20401;-77
2021/12/03 08:29:42;;;;;;;29.30;12.40;;;-1.40;99.90;;;;;;5049807;28;20032;-76
2021/12/03 08:32:10;;;;;;;17.98;9.52;;;-1.40;99.90;;;;;;5049879;28;20378;-77
2021/12/03 08:34:35;;;;;;;13.30;7.40;;;-1.50;99.90;;;;;;5048635;28;20032;-77
2021/12/03 08:37:02;;;;;;;10.30;5.57;;;-1.40;99.90;;;;;;5048408;28;20017;-76
2021/12/03 08:39:29;;;;;;;5.05;3.85;;;-1.50;99.90;;;;;;5092232;27;20019;-77
2021/12/03 08:41:54;;;;;;;9.95;5.68;;;-1.50;99.90;;;;;;5099671;27;20013;-77
2021/12/03 08:44:21;;;;;;;9.13;3.85;;;-1.40;99.90;;;;;;5097619;27;20106;-77
2021/12/03 08:46:50;;;;;;;9.32;5.40;;;-1.40;99.90;;;;;;5105990;27;20121;-77
2021/12/03 08:52:24;;;;;;;8.10;4.30;;;-1.30;99.90;;;;;;5039482;28;20025;-77
2021/12/03 08:54:51;;;;;;;9.38;4.03;;;-1.20;99.90;;;;;;5039867;27;20043;-77
2021/12/03 08:57:25;;;;;;;7.15;4.47;;;-1.20;99.90;;;;;;5038638;28;20094;-77
2021/12/03 08:59:54;;;;;;;6.13;4.75;;;-1.30;99.90;;;;;;5061862;27;20021;-77
2021/12/03 09:02:20;;;;;;;7.60;4.70;;;-1.30;99.90;;;;;;5049656;28;20029;-77
2021/12/03 09:04:45;;;;;;;5.85;4.10;;;-1.20;99.90;;;;;;5048423;28;20035;-77
2021/12/03 09:07:11;;;;;;;7.68;5.05;;;-1.20;99.90;;;;;;5049984;28;20032;-76
2021/12/03 09:09:37;;;;;;;10.23;4.00;;;-1.20;99.90;;;;;;5048319;28;20461;-77
2021/12/03 09:12:04;;;;;;;9.05;4.45;;;-1.10;99.90;;;;;;5048487;28;20017;-77
2021/12/03 09:19:50;;;;;;;11.13;5.07;;;-1.00;99.90;;;;;;5050443;28;20074;-77
2021/12/03 09:25:08;;;;;;;6.72;4.93;;;-0.90;99.90;;;;;;5060189;27;20025;-77
2021/12/03 09:27:36;;;;;;;10.57;4.50;;;-0.80;99.90;;;;;;5065393;27;20423;-76
2021/12/03 09:30:07;;;;;;;11.30;5.05;;;-0.80;99.90;;;;;;5088462;27;20017;-76
2021/12/03 09:32:33;;;;;;;9.38;5.30;;;-0.80;99.90;;;;;;5050765;28;20546;-76
2021/12/03 09:35:00;;;;;;;6.70;4.88;;;-0.80;99.90;;;;;;5050684;28;20029;-77
2021/12/03 09:37:25;;;;;;;15.23;5.53;;;-0.80;99.90;;;;;;5047380;27;20060;-77
2021/12/03 09:39:52;;;;;;;9.25;4.47;;;-0.80;99.90;;;;;;5061041;27;20045;-77
2021/12/03 09:42:19;;;;;;;12.25;6.20;;;-0.80;99.90;;;;;;5051565;28;20025;-77
2021/12/03 09:44:47;;;;;;;6.13;3.95;;;-0.80;99.90;;;;;;5051439;28;20037;-76
2021/12/03 09:47:17;;;;;;;5.70;4.05;;;-0.80;95.60;;;;;;5104571;27;20572;-77
2021/12/03 09:49:43;;;;;;;5.75;4.57;;;-0.80;96.70;;;;;;5106439;27;20031;-77
2021/12/03 09:52:35;;;;;;;7.95;4.72;;;-0.70;95.80;;;;;;5106604;27;20040;-76
2021/12/03 09:55:07;;;;;;;9.82;5.00;;;-0.70;95.10;;;;;;5050766;28;20044;-76
2021/12/03 09:57:47;;;;;;;8.90;5.15;;;-0.60;96.90;;;;;;5107506;27;20026;-76
2021/12/03 10:17:49;;;;;;;7.43;5.65;;;-0.50;85.30;;;;;;5030285;28;20128;-76
2021/12/03 10:20:24;;;;;;;5.80;4.20;;;-0.40;82.80;;;;;;5050792;28;20025;-76
2021/12/03 10:36:44;;;;;;;6.72;4.03;;;-0.10;79.10;;;;;;5136709;27;20159;-77
2021/12/03 10:41:59;;;;;;;8.02;5.10;;;0.00;76.90;;;;;;5155399;27;20062;-77
2021/12/03 10:47:23;;;;;;;5.65;5.03;;;0.00;74.70;;;;;;5156608;27;20042;-76
2021/12/03 11:07:15;;;;;;;11.45;6.35;;;0.10;76.00;;;;;;5156448;27;20057;-77
2021/12/03 11:58:59;;;;;;;46.30;24.33;;;1.00;64.40;;;;;;5030399;28;20052;-77
2021/12/03 12:17:12;;;;;;;14.15;6.60;;;1.20;64.30;;;;;;5029514;28;20044;-76
2021/12/03 12:25:29;;;;;;;10.38;5.65;;;1.10;65.10;;;;;;5041915;28;20036;-76
2021/12/03 12:32:10;;;;;;;14.02;6.63;;;1.10;65.00;;;;;;5048574;28;20078;-76
2021/12/03 12:55:08;;;;;;;19.35;9.88;;;1.20;65.00;;;;;;5042493;28;20562;-77
2021/12/03 13:03:00;;;;;;;13.38;6.80;;;1.20;63.00;;;;;;5050018;28;20029;-78
2021/12/03 13:21:18;;;;;;;11.15;5.32;;;1.20;63.80;;;;;;5049653;28;20466;-76
2021/12/03 13:26:55;;;;;;;11.33;5.57;;;1.10;64.40;;;;;;5049310;28;20045;-77
2021/12/03 14:00:11;;;;;;;12.35;6.75;;;0.80;64.80;;;;;;5105107;27;20508;-76
2021/12/03 14:18:24;;;;;;;13.18;6.95;;;0.60;66.30;;;;;;5102100;27;20029;-76
2021/12/03 14:57:11;;;;;;;37.13;15.15;;;-0.40;72.40;;;;;;5062075;27;20040;-77
2021/12/03 14:59:40;;;;;;;35.58;15.95;;;-0.50;73.30;;;;;;5047568;27;20068;-76
2021/12/03 15:02:41;;;;;;;38.95;15.93;;;-0.60;73.70;;;;;;5047804;27;20557;-77
2021/12/03 15:05:16;;;;;;;28.05;13.77;;;-0.60;74.40;;;;;;5050508;27;20124;-76
2021/12/03 15:07:45;;;;;;;49.47;24.90;;;-0.60;75.10;;;;;;5079737;27;20083;-77
2021/12/03 15:10:20;;;;;;;57.05;33.67;;;-0.70;75.90;;;;;;5154309;27;20026;-76
2021/12/03 15:16:09;;;;;;;26.13;14.93;;;-0.80;76.80;;;;;;5155635;27;20075;-77
2021/12/03 15:18:37;;;;;;;44.08;20.25;;;-0.80;77.50;;;;;;5053095;27;20177;-76
2021/12/03 15:54:27;;;;;;;339.80;132.35;;;-1.50;83.40;;;;;;5037657;27;20068;-77
2021/12/03 16:05:06;;;;;;;168.40;60.13;;;-1.70;86.60;;;;;;5064564;27;20036;-76
2021/12/03 16:10:20;;;;;;;108.57;43.08;;;-1.80;88.10;;;;;;5098322;27;20044;-75
2021/12/03 16:12:58;;;;;;;117.22;54.80;;;-1.90;88.50;;;;;;5099969;27;20017;-76
2021/12/03 16:52:17;;;;;;;45.95;20.80;;;-2.50;95.70;;;;;;5048998;27;20029;-76
2021/12/03 16:55:17;;;;;;;45.80;23.50;;;-2.50;96.10;;;;;;5047958;27;20070;-75
2021/12/03 16:57:37;;;;;;;47.47;23.63;;;-2.50;96.50;;;;;;5046934;27;20048;-75
2021/12/03 17:00:21;;;;;;;50.22;21.85;;;-2.50;96.30;;;;;;5083617;27;20027;-74
2021/12/03 17:02:55;;;;;;;39.22;20.45;;;-2.50;96.70;;;;;;5094633;27;20031;-75
2021/12/03 17:05:37;;;;;;;57.03;24.73;;;-2.50;96.80;;;;;;5124184;27;20037;-73
2021/12/03 17:24:34;;;;;;;92.28;42.92;;;-2.80;96.90;;;;;;5067698;28;20036;-74
2021/12/03 17:46:26;;;;;;;55.70;24.33;;;-2.80;98.50;;;;;;5072947;28;20070;-74
2021/12/03 17:56:50;;;;;;;44.55;22.27;;;-2.90;99.90;;;;;;5072933;28;20548;-74
2021/12/03 18:04:27;;;;;;;46.72;23.58;;;-2.90;99.90;;;;;;5072854;28;20040;-74
2021/12/03 18:43:14;;;;;;;661.22;305.45;;;-3.00;99.90;;;;;;5072207;28;20036;-74
2021/12/03 18:44:33;;;;;;;174.95;61.55;;;-3.50;99.90;;;;;;5071869;28;20123;-74
2021/12/03 18:54:59;;;;;;;149.27;60.50;;;-3.50;99.90;;;;;;5071950;28;20035;-73
2021/12/03 18:57:27;;;;;;;89.47;36.13;;;-3.60;99.90;;;;;;5071428;28;20538;-74
2021/12/03 19:00:04;;;;;;;82.82;32.00;;;-3.60;99.90;;;;;;5070334;28;20025;-74
2021/12/03 19:02:29;;;;;;;77.95;35.35;;;-3.70;99.90;;;;;;5071663;28;20036;-74
2021/12/03 19:07:44;;;;;;;67.78;28.63;;;-3.70;99.90;;;;;;5071693;28;20041;-74
2021/12/03 19:10:17;;;;;;;66.68;28.40;;;-3.70;99.90;;;;;;5070474;28;20024;-73
2021/12/03 19:12:45;;;;;;;66.60;30.77;;;-3.80;99.90;;;;;;5070437;28;20036;-74
2021/12/03 19:15:12;;;;;;;84.45;35.28;;;-3.80;99.90;;;;;;5069992;28;20480;-74
2021/12/03 19:17:41;;;;;;;89.13;39.50;;;-3.80;99.90;;;;;;5069937;28;20579;-74
2021/12/03 19:20:11;;;;;;;100.15;42.03;;;-3.80;99.90;;;;;;5071313;28;20017;-74
2021/12/03 19:22:37;;;;;;;99.32;41.38;;;-3.90;99.90;;;;;;5071205;28;20102;-73
2021/12/03 19:25:03;;;;;;;99.25;37.22;;;-3.90;99.90;;;;;;5071336;28;20060;-74
2021/12/03 19:27:29;;;;;;;95.63;35.55;;;-3.90;99.90;;;;;;5069838;28;20032;-74
2021/12/03 19:29:56;;;;;;;88.97;36.78;;;-3.90;99.90;;;;;;5070864;28;20035;-74
2021/12/03 19:32:25;;;;;;;85.10;38.88;;;-3.90;99.90;;;;;;5071198;28;20065;-74
2021/12/03 19:34:51;;;;;;;82.93;37.88;;;-3.90;99.90;;;;;;5069968;28;20052;-74
2021/12/03 19:37:17;;;;;;;97.60;38.63;;;-3.90;99.90;;;;;;5071061;28;20073;-75
2021/12/03 19:39:42;;;;;;;79.28;34.38;;;-3.90;99.90;;;;;;5069689;28;20020;-74
2021/12/03 19:44:47;;;;;;;77.55;39.85;;;-4.00;99.90;;;;;;5070177;28;20132;-74
2021/12/03 19:47:14;;;;;;;74.50;33.33;;;-4.00;99.90;;;;;;5068522;28;20032;-74
2021/12/03 19:52:37;;;;;;;74.90;34.10;;;-4.10;99.90;;;;;;5069803;28;20043;-74
2021/12/03 19:54:59;;;;;;;94.78;41.25;;;-4.10;99.90;;;;;;5070457;28;20035;-73
2021/12/03 19:57:25;;;;;;;107.55;46.95;;;-4.20;99.90;;;;;;5069445;28;20020;-75
2021/12/03 19:59:51;;;;;;;123.72;48.75;;;-4.20;99.90;;;;;;5069375;28;20021;-73
2021/12/03 20:02:17;;;;;;;214.13;79.45;;;-4.20;99.90;;;;;;5070721;28;20020;-74
2021/12/03 20:04:43;;;;;;;201.70;79.05;;;-4.20;99.90;;;;;;5068975;28;20094;-73
2021/12/03 20:07:09;;;;;;;302.60;106.72;;;-4.20;99.90;;;;;;5067073;28;20512;-75
2021/12/03 20:09:41;;;;;;;412.80;147.95;;;-4.20;99.90;;;;;;5059925;28;20029;-73
2021/12/03 20:12:14;;;;;;;488.50;169.30;;;-4.20;99.90;;;;;;5048698;28;20308;-74
2021/12/03 20:14:42;;;;;;;;;;;-4.20;99.90;;;;;;5047539;27;20113;-74
2021/12/03 20:17:25;;;;;;;319.02;112.07;;;-4.20;99.90;;;;;;5047109;28;20323;-74